createdAt,value
2022-08-25T00:00:27.547Z,101707.16
2022-08-25T00:02:55.531Z,101695.88
2022-08-25T00:05:20.349Z,101701.00
2022-08-25T00:07:45.324Z,101696.88
2022-08-25T00:10:11.357Z,101697.75
2022-08-25T00:12:35.110Z,101696.06
2022-08-25T00:14:58.998Z,101691.97
2022-08-25T00:17:22.674Z,101695.03
2022-08-25T00:19:46.390Z,101696.06
2022-08-25T00:22:10.225Z,101699.28
2022-08-25T00:24:33.950Z,101697.44
2022-08-25T00:27:01.912Z,101700.50
2022-08-25T00:29:27.435Z,101696.56
2022-08-25T00:31:52.447Z,101685.31
2022-08-25T00:34:20.059Z,101694.16
2022-08-25T00:36:44.343Z,101690.91
2022-08-25T00:39:09.803Z,101693.28
2022-08-25T00:41:35.342Z,101687.31
2022-08-25T00:44:04.412Z,101690.56
2022-08-25T00:46:31.985Z,101683.41
2022-08-25T00:49:01.262Z,101678.97
2022-08-25T00:51:33.850Z,101685.63
2022-08-25T00:53:58.359Z,101680.81
2022-08-25T00:56:22.282Z,101681.50
2022-08-25T00:58:46.214Z,101681.16
2022-08-25T01:01:11.802Z,101681.84
2022-08-25T01:03:35.994Z,101682.38
2022-08-25T01:05:59.680Z,101678.25
2022-08-25T01:08:29.123Z,101671.25
2022-08-25T01:10:53.469Z,101686.59
2022-08-25T01:13:21.516Z,101680.94
2022-08-25T01:15:45.800Z,101684.72
2022-08-25T01:18:11.923Z,101681.13
2022-08-25T01:20:35.734Z,101677.59
2022-08-25T01:23:02.268Z,101680.97
2022-08-25T01:25:36.403Z,101684.22
2022-08-25T01:28:00.167Z,101687.66
2022-08-25T01:30:24.062Z,101691.22
2022-08-25T01:32:48.093Z,101689.69
2022-08-25T01:35:11.743Z,101691.56
2022-08-25T01:37:36.022Z,101687.81
2022-08-25T01:40:01.110Z,101690.50
2022-08-25T01:42:43.751Z,101681.47
2022-08-25T01:45:10.362Z,101689.31
2022-08-25T01:47:34.279Z,101690.88
2022-08-25T01:49:57.960Z,101683.69
2022-08-25T01:52:26.804Z,101685.53
2022-08-25T01:54:50.483Z,101676.50
2022-08-25T01:57:15.503Z,101677.19
2022-08-25T01:59:39.364Z,101676.66
2022-08-25T02:02:04.935Z,101677.56
2022-08-25T02:04:32.324Z,101675.34
2022-08-25T02:06:56.170Z,101674.97
2022-08-25T02:09:20.110Z,101672.91
2022-08-25T02:11:46.931Z,101669.50
2022-08-25T02:14:14.159Z,101672.88
2022-08-25T02:16:41.493Z,101669.84
2022-08-25T02:19:07.628Z,101670.69
2022-08-25T02:21:32.557Z,101661.13
2022-08-25T02:23:56.923Z,101660.63
2022-08-25T02:26:21.147Z,101658.56
2022-08-25T02:28:46.166Z,101651.56
2022-08-25T02:31:11.391Z,101660.09
2022-08-25T02:33:35.149Z,101663.34
2022-08-25T02:36:00.458Z,101662.66
2022-08-25T02:38:24.094Z,101654.41
2022-08-25T02:40:47.719Z,101655.97
2022-08-25T02:43:11.541Z,101658.63
2022-08-25T02:45:35.328Z,101653.59
2022-08-25T02:48:00.513Z,101653.06
2022-08-25T02:50:24.956Z,101656.50
2022-08-25T02:52:50.700Z,101653.59
2022-08-25T02:55:14.748Z,101649.75
2022-08-25T02:57:38.465Z,101647.69
2022-08-25T03:00:02.083Z,101642.59
2022-08-25T03:02:26.054Z,101644.47
2022-08-25T03:04:52.292Z,101641.03
2022-08-25T03:07:19.158Z,101642.38
2022-08-25T03:09:45.035Z,101636.53
2022-08-25T03:12:09.731Z,101645.16
2022-08-25T03:14:33.371Z,101630.16
2022-08-25T03:16:57.170Z,101642.91
2022-08-25T03:19:20.883Z,101636.75
2022-08-25T03:21:46.242Z,101630.28
2022-08-25T03:24:10.254Z,101620.91
2022-08-25T03:26:51.711Z,101626.81
2022-08-25T03:29:15.416Z,101624.03
2022-08-25T03:31:40.095Z,101631.41
2022-08-25T03:34:04.240Z,101635.19
2022-08-25T03:36:28.899Z,101628.00
2022-08-25T03:38:55.153Z,101615.44
2022-08-25T03:41:22.578Z,101616.13
2022-08-25T03:43:47.547Z,101616.44
2022-08-25T03:46:20.618Z,101615.09
2022-08-25T03:48:44.515Z,101614.75
2022-08-25T03:51:08.335Z,101622.13
2022-08-25T03:53:31.983Z,101622.03
2022-08-25T03:55:57.752Z,101620.84
2022-08-25T03:58:21.385Z,101625.47
2022-08-25T04:00:45.131Z,101623.88
2022-08-25T04:03:08.974Z,101629.16
2022-08-25T04:05:32.966Z,101623.44
2022-08-25T04:07:57.041Z,101627.09
2022-08-25T04:10:20.880Z,101630.47
2022-08-25T04:12:45.882Z,101638.09
2022-08-25T04:15:11.540Z,101634.09
2022-08-25T04:17:35.752Z,101630.44
2022-08-25T04:19:59.450Z,101635.41
2022-08-25T04:22:23.218Z,101631.31
2022-08-25T04:24:47.112Z,101640.53
2022-08-25T04:27:10.819Z,101637.72
2022-08-25T04:29:36.542Z,101646.44
2022-08-25T04:32:00.317Z,101652.50
2022-08-25T04:34:31.106Z,101644.34
2022-08-25T04:36:55.311Z,101640.06
2022-08-25T04:39:20.864Z,101650.22
2022-08-25T04:41:44.876Z,101641.66
2022-08-25T04:44:08.551Z,101642.44
2022-08-25T04:46:35.673Z,101643.53
2022-08-25T04:49:01.301Z,101659.09
2022-08-25T04:51:27.713Z,101652.22
2022-08-25T04:53:52.085Z,101654.47
2022-08-25T04:56:20.918Z,101642.72
2022-08-25T04:58:46.368Z,101645.25
2022-08-25T05:01:15.656Z,101650.34
2022-08-25T05:03:40.787Z,101649.88
2022-08-25T05:06:06.205Z,101643.06
2022-08-25T05:08:30.288Z,101647.53
2022-08-25T05:10:56.702Z,101637.19
2022-08-25T05:13:20.766Z,101642.19
2022-08-25T05:15:53.089Z,101639.53
2022-08-25T05:18:18.219Z,101645.50
2022-08-25T05:20:43.419Z,101648.94
2022-08-25T05:23:07.303Z,101645.88
2022-08-25T05:25:31.879Z,101655.13
2022-08-25T05:27:55.602Z,101655.31
2022-08-25T05:30:19.450Z,101650.69
2022-08-25T05:32:43.194Z,101641.50
2022-08-25T05:35:09.093Z,101645.59
2022-08-25T05:37:35.132Z,101654.13
2022-08-25T05:39:58.947Z,101655.19
2022-08-25T05:42:24.072Z,101650.41
2022-08-25T05:44:48.140Z,101648.19
2022-08-25T05:47:11.960Z,101654.31
2022-08-25T05:49:35.636Z,101658.28
2022-08-25T05:51:59.301Z,101660.47
2022-08-25T05:54:24.385Z,101660.66
2022-08-25T05:56:48.186Z,101659.28
2022-08-25T05:59:11.864Z,101664.69
2022-08-25T06:01:52.848Z,101668.50
2022-08-25T06:04:17.954Z,101671.91
2022-08-25T06:06:42.230Z,101672.25
2022-08-25T06:09:08.809Z,101677.31
2022-08-25T06:11:33.838Z,101678.72
2022-08-25T06:13:57.617Z,101671.44
2022-08-25T06:16:21.322Z,101669.03
2022-08-25T06:18:45.111Z,101667.94
2022-08-25T06:21:14.225Z,101665.28
2022-08-25T06:23:39.539Z,101663.06
2022-08-25T06:26:03.590Z,101656.56
2022-08-25T06:28:28.707Z,101661.53
2022-08-25T06:30:52.367Z,101658.75
2022-08-25T06:33:16.487Z,101662.03
2022-08-25T06:35:43.646Z,101663.41
2022-08-25T06:38:07.427Z,101669.72
2022-08-25T06:40:31.307Z,101669.72
2022-08-25T06:42:55.048Z,101669.91
2022-08-25T06:45:21.093Z,101669.72
2022-08-25T06:47:45.606Z,101675.22
2022-08-25T06:50:10.431Z,101671.63
2022-08-25T06:52:35.713Z,101667.88
2022-08-25T06:54:59.515Z,101666.38
2022-08-25T06:57:23.251Z,101666.00
2022-08-25T06:59:47.276Z,101674.00
2022-08-25T07:02:12.491Z,101672.84
2022-08-25T07:04:39.564Z,101674.16
2022-08-25T07:07:04.131Z,101675.56
2022-08-25T07:09:27.931Z,101664.63
2022-08-25T07:11:52.460Z,101676.19
2022-08-25T07:14:18.701Z,101667.31
2022-08-25T07:16:48.510Z,101670.16
2022-08-25T07:19:14.765Z,101668.59
2022-08-25T07:21:41.422Z,101654.06
2022-08-25T07:24:09.229Z,101656.19
2022-08-25T07:26:37.685Z,101657.91
2022-08-25T07:29:02.515Z,101658.38
2022-08-25T07:31:29.378Z,101651.69
2022-08-25T07:34:10.823Z,101652.38
2022-08-25T07:36:38.363Z,101651.69
2022-08-25T07:39:05.982Z,101652.44
2022-08-25T07:41:30.811Z,101649.44
2022-08-25T07:43:56.994Z,101640.94
2022-08-25T07:46:20.851Z,101643.50
2022-08-25T07:48:44.609Z,101644.22
2022-08-25T07:51:17.843Z,101646.72
2022-08-25T07:53:43.644Z,101646.91
2022-08-25T07:56:12.540Z,101646.47
2022-08-25T07:58:36.215Z,101662.03
2022-08-25T08:00:59.900Z,101649.44
2022-08-25T08:03:44.693Z,101652.75
2022-08-25T08:06:10.608Z,101647.56
2022-08-25T08:08:34.424Z,101642.00
2022-08-25T08:11:04.496Z,101640.69
2022-08-25T08:13:28.935Z,101632.97
2022-08-25T08:15:52.627Z,101640.84
2022-08-25T08:18:17.069Z,101645.19
2022-08-25T08:20:45.337Z,101642.94
2022-08-25T08:23:09.083Z,101640.94
2022-08-25T08:25:32.821Z,101636.25
2022-08-25T08:27:58.451Z,101637.06
2022-08-25T08:30:23.705Z,101638.38
2022-08-25T08:33:09.073Z,101635.44
2022-08-25T08:35:33.636Z,101637.63
2022-08-25T08:37:57.326Z,101633.00
2022-08-25T08:40:22.394Z,101623.88
2022-08-25T08:43:04.086Z,101621.69
2022-08-25T08:45:35.628Z,101612.84
2022-08-25T08:48:36.953Z,101611.38
2022-08-25T08:51:12.643Z,101614.88
2022-08-25T08:53:45.489Z,101617.47
2022-08-25T08:56:15.896Z,101612.59
2022-08-25T08:58:50.093Z,101616.94
2022-08-25T09:01:19.232Z,101613.44
2022-08-25T09:03:47.764Z,101611.72
2022-08-25T09:06:26.016Z,101614.19
2022-08-25T09:08:50.008Z,101608.47
2022-08-25T09:11:23.369Z,101607.72
2022-08-25T09:14:10.662Z,101604.69
2022-08-25T09:16:56.084Z,101611.56
2022-08-25T09:19:48.417Z,101605.56
2022-08-25T09:22:35.682Z,101601.69
2022-08-25T09:25:16.341Z,101610.13
2022-08-25T09:27:56.030Z,101603.34
2022-08-25T09:30:25.184Z,101600.38
2022-08-25T09:32:52.494Z,101596.09
2022-08-25T09:35:21.444Z,101593.66
2022-08-25T09:37:53.560Z,101594.59
2022-08-25T09:40:17.705Z,101595.78
2022-08-25T09:42:57.668Z,101596.78
2022-08-25T09:45:39.592Z,101586.72
2022-08-25T09:48:23.914Z,101584.38
2022-08-25T09:50:47.964Z,101591.50
2022-08-25T09:53:18.930Z,101586.19
2022-08-25T09:55:48.511Z,101590.97
2022-08-25T09:58:22.266Z,101587.56
2022-08-25T10:01:14.232Z,101579.31
2022-08-25T10:03:38.385Z,101571.94
2022-08-25T10:06:13.260Z,101578.31
2022-08-25T10:08:42.554Z,101575.38
2022-08-25T10:11:10.151Z,101565.22
2022-08-25T10:13:44.973Z,101554.41
2022-08-25T10:16:24.291Z,101556.94
2022-08-25T10:19:04.495Z,101558.59
2022-08-25T10:21:28.250Z,101563.19
2022-08-25T10:23:55.976Z,101556.66
2022-08-25T10:26:34.791Z,101546.97
2022-08-25T10:29:24.435Z,101553.97
2022-08-25T10:31:58.229Z,101560.34
2022-08-25T10:34:36.243Z,101554.13
2022-08-25T10:37:15.359Z,101555.03
2022-08-25T10:39:46.213Z,101559.00
2022-08-25T10:42:33.858Z,101551.81
2022-08-25T10:45:38.364Z,101547.34
2022-08-25T10:48:46.643Z,101538.28
2022-08-25T10:51:42.876Z,101535.75
2022-08-25T10:54:18.943Z,101534.19
2022-08-25T10:56:46.983Z,101530.00
2022-08-25T10:59:34.708Z,101524.53
2022-08-25T11:02:36.187Z,101526.25
2022-08-25T11:05:07.899Z,101513.63
2022-08-25T11:07:35.815Z,101514.56
2022-08-25T11:10:05.345Z,101514.88
2022-08-25T11:12:35.052Z,101511.78
2022-08-25T11:15:02.677Z,101512.53
2022-08-25T11:17:36.395Z,101510.13
2022-08-25T11:20:15.295Z,101511.53
2022-08-25T11:22:59.144Z,101502.44
2022-08-25T11:25:30.367Z,101506.28
2022-08-25T11:28:01.016Z,101495.34
2022-08-25T11:30:25.920Z,101486.22
2022-08-25T11:32:53.587Z,101491.25
2022-08-25T11:35:21.663Z,101492.53
2022-08-25T11:38:04.690Z,101483.84
2022-08-25T11:40:45.576Z,101489.28
2022-08-25T11:43:47.719Z,101483.63
2022-08-25T11:46:32.714Z,101475.22
2022-08-25T11:49:09.412Z,101480.75
2022-08-25T11:51:42.504Z,101475.38
2022-08-25T11:54:21.860Z,101483.66
2022-08-25T11:56:55.087Z,101470.44
2022-08-25T12:00:03.694Z,101462.94
2022-08-25T12:02:36.443Z,101461.97
2022-08-25T12:05:00.669Z,101453.41
2022-08-25T12:07:32.179Z,101446.31
2022-08-25T12:10:57.026Z,101446.28
2022-08-25T12:13:45.140Z,101446.06
2022-08-25T12:16:38.334Z,101454.16
2022-08-25T12:19:49.833Z,101440.53
2022-08-25T12:22:55.790Z,101443.03
2022-08-25T12:25:47.419Z,101439.84
2022-08-25T12:28:35.022Z,101432.97
2022-08-25T12:31:05.824Z,101428.16
2022-08-25T12:33:47.407Z,101428.63
2022-08-25T12:36:31.124Z,101419.84
2022-08-25T12:38:54.931Z,101413.81
2022-08-25T12:41:24.166Z,101407.47
2022-08-25T12:43:50.679Z,101413.56
2022-08-25T12:46:40.570Z,101414.34
2022-08-25T12:49:14.344Z,101418.06
2022-08-25T12:51:57.495Z,101414.53
2022-08-25T12:54:37.837Z,101414.91
2022-08-25T12:57:05.211Z,101404.78
2022-08-25T12:59:37.418Z,101404.09
2022-08-25T13:02:37.460Z,101401.38
2022-08-25T13:05:40.801Z,101408.53
2022-08-25T13:08:57.633Z,101404.44
2022-08-25T13:11:29.367Z,101399.34
2022-08-25T13:14:06.589Z,101394.78
2022-08-25T13:16:31.338Z,101385.88
2022-08-25T13:18:59.015Z,101389.47
2022-08-25T13:21:31.458Z,101384.78
2022-08-25T13:24:04.700Z,101371.91
2022-08-25T13:26:32.543Z,101367.91
2022-08-25T13:29:05.166Z,101367.75
2022-08-25T13:31:32.525Z,101369.50
2022-08-25T13:33:59.524Z,101369.69
2022-08-25T13:36:47.122Z,101370.31
2022-08-25T13:39:38.992Z,101364.28
2022-08-25T13:42:09.248Z,101363.94
2022-08-25T13:44:39.035Z,101359.00
2022-08-25T13:47:11.888Z,101360.41
2022-08-25T13:49:35.963Z,101355.50
2022-08-25T13:52:01.055Z,101358.63
2022-08-25T13:54:31.346Z,101353.34
2022-08-25T13:56:55.845Z,101357.53
2022-08-25T13:59:27.375Z,101360.72
2022-08-25T14:01:52.438Z,101354.31
2022-08-25T14:04:51.754Z,101358.03
2022-08-25T14:07:34.176Z,101355.50
2022-08-25T14:10:01.593Z,101359.09
2022-08-25T14:12:37.968Z,101352.53
2022-08-25T14:15:07.871Z,101348.88
2022-08-25T14:17:40.670Z,101342.47
2022-08-25T14:20:05.862Z,101345.97
2022-08-25T14:22:30.924Z,101342.34
2022-08-25T14:24:56.170Z,101326.53
2022-08-25T14:27:20.204Z,101322.50
2022-08-25T14:29:43.985Z,101324.03
2022-08-25T14:32:08.360Z,101323.69
2022-08-25T14:34:38.659Z,101323.34
2022-08-25T14:37:04.821Z,101316.19
2022-08-25T14:39:30.284Z,101323.28
2022-08-25T14:41:54.207Z,101313.69
2022-08-25T14:44:18.363Z,101307.06
2022-08-25T14:46:47.890Z,101307.53
2022-08-25T14:49:17.275Z,101300.06
2022-08-25T14:51:49.290Z,101301.03
2022-08-25T14:54:18.634Z,101298.44
2022-08-25T14:56:44.344Z,101294.97
2022-08-25T14:59:08.187Z,101299.22
2022-08-25T15:01:32.585Z,101293.41
2022-08-25T15:04:02.485Z,101291.88
2022-08-25T15:06:26.397Z,101288.25
2022-08-25T15:09:08.144Z,101287.22
2022-08-25T15:11:35.349Z,101285.41
2022-08-25T15:14:01.583Z,101283.09
2022-08-25T15:16:34.079Z,101283.44
2022-08-25T15:18:59.171Z,101279.56
2022-08-25T15:21:22.975Z,101274.94
2022-08-25T15:23:46.787Z,101277.59
2022-08-25T15:26:15.192Z,101272.47
2022-08-25T15:28:39.302Z,101263.09
2022-08-25T15:31:04.423Z,101265.63
2022-08-25T15:33:32.121Z,101260.69
2022-08-25T15:35:56.706Z,101265.91
2022-08-25T15:38:20.738Z,101264.44
2022-08-25T15:40:44.455Z,101266.00
2022-08-25T15:43:11.044Z,101262.53
2022-08-25T15:45:36.070Z,101258.06
2022-08-25T15:48:01.512Z,101251.56
2022-08-25T15:50:27.904Z,101256.44
2022-08-25T15:52:51.683Z,101254.13
2022-08-25T15:55:16.428Z,101251.19
2022-08-25T15:57:40.439Z,101253.38
2022-08-25T16:00:10.058Z,101243.22
2022-08-25T16:02:34.788Z,101237.53
2022-08-25T16:04:59.859Z,101236.75
2022-08-25T16:07:23.623Z,101233.44
2022-08-25T16:09:48.224Z,101240.44
2022-08-25T16:12:14.983Z,101231.34
2022-08-25T16:14:39.543Z,101230.63
2022-08-25T16:17:03.236Z,101222.22
2022-08-25T16:19:27.552Z,101220.94
2022-08-25T16:21:52.676Z,101224.78
2022-08-25T16:24:16.492Z,101218.59
2022-08-25T16:26:47.957Z,101218.00
2022-08-25T16:29:14.522Z,101211.41
2022-08-25T16:31:38.460Z,101210.88
2022-08-25T16:34:02.496Z,101209.72
2022-08-25T16:36:28.080Z,101211.97
2022-08-25T16:38:54.039Z,101204.97
2022-08-25T16:41:22.369Z,101197.22
2022-08-25T16:43:46.291Z,101203.19
2022-08-25T16:46:13.372Z,101197.03
2022-08-25T16:48:38.288Z,101207.28
2022-08-25T16:51:02.312Z,101203.69
2022-08-25T16:53:45.471Z,101205.06
2022-08-25T16:56:13.951Z,101197.28
2022-08-25T16:58:38.454Z,101203.53
2022-08-25T17:01:09.524Z,101201.53
2022-08-25T17:03:34.949Z,101202.69
2022-08-25T17:06:01.042Z,101197.03
2022-08-25T17:08:30.960Z,101199.47
2022-08-25T17:10:54.832Z,101200.41
2022-08-25T17:13:19.895Z,101196.09
2022-08-25T17:15:46.912Z,101194.88
2022-08-25T17:18:12.829Z,101198.34
2022-08-25T17:20:38.282Z,101198.03
2022-08-25T17:23:02.191Z,101203.16
2022-08-25T17:25:37.355Z,101199.34
2022-08-25T17:28:07.221Z,101200.34
2022-08-25T17:30:40.102Z,101199.28
2022-08-25T17:33:04.143Z,101198.44
2022-08-25T17:35:27.919Z,101192.09
2022-08-25T17:37:51.659Z,101194.38
2022-08-25T17:40:17.228Z,101204.94
2022-08-25T17:42:41.278Z,101207.50
2022-08-25T17:45:06.717Z,101207.53
2022-08-25T17:47:32.221Z,101209.88
2022-08-25T17:49:57.179Z,101200.34
2022-08-25T17:52:25.468Z,101205.06
2022-08-25T17:54:49.533Z,101207.63
2022-08-25T17:57:16.830Z,101204.53
2022-08-25T17:59:40.690Z,101207.06
2022-08-25T18:02:04.866Z,101204.34
2022-08-25T18:04:30.038Z,101212.91
2022-08-25T18:06:53.863Z,101209.53
2022-08-25T18:09:19.004Z,101204.97
2022-08-25T18:11:43.265Z,101213.09
2022-08-25T18:14:07.002Z,101217.97
2022-08-25T18:16:34.759Z,101219.25
2022-08-25T18:18:58.959Z,101217.94
2022-08-25T18:21:25.572Z,101215.16
2022-08-25T18:23:55.964Z,101221.81
2022-08-25T18:26:21.909Z,101218.84
2022-08-25T18:28:49.335Z,101224.41
2022-08-25T18:31:13.788Z,101223.94
2022-08-25T18:33:41.594Z,101228.00
2022-08-25T18:36:05.852Z,101231.00
2022-08-25T18:38:48.342Z,101234.25
2022-08-25T18:41:13.158Z,101235.94
2022-08-25T18:43:37.347Z,101236.41
2022-08-25T18:46:04.593Z,101228.16
2022-08-25T18:48:29.266Z,101240.66
2022-08-25T18:50:54.625Z,101232.66
2022-08-25T18:53:19.209Z,101241.53
2022-08-25T18:56:01.877Z,101238.78
2022-08-25T18:58:28.301Z,101238.59
2022-08-25T19:00:52.600Z,101227.78
2022-08-25T19:03:18.593Z,101238.59
2022-08-25T19:05:45.953Z,101244.09
2022-08-25T19:08:21.817Z,101240.06
2022-08-25T19:10:50.845Z,101236.69
2022-08-25T19:13:15.994Z,101237.53
2022-08-25T19:15:41.903Z,101236.25
2022-08-25T19:18:09.829Z,101243.88
2022-08-25T19:20:35.043Z,101250.44
2022-08-25T19:22:59.727Z,101246.22
2022-08-25T19:25:25.095Z,101248.72
2022-08-25T19:27:58.532Z,101247.19
2022-08-25T19:30:29.717Z,101247.84
2022-08-25T19:32:54.583Z,101252.47
2022-08-25T19:35:28.008Z,101247.59
2022-08-25T19:37:54.923Z,101251.38
2022-08-25T19:40:20.422Z,101247.34
2022-08-25T19:42:44.084Z,101248.81
2022-08-25T19:45:12.002Z,101245.44
2022-08-25T19:47:37.683Z,101248.97
2022-08-25T19:50:01.366Z,101253.00
2022-08-25T19:52:26.559Z,101241.34
2022-08-25T19:54:50.485Z,101244.09
2022-08-25T19:57:28.657Z,101247.41
2022-08-25T20:00:00.540Z,101241.69
2022-08-25T20:02:30.019Z,101250.16
2022-08-25T20:04:59.552Z,101250.94
2022-08-25T20:07:27.610Z,101244.78
2022-08-25T20:09:51.840Z,101243.09
2022-08-25T20:14:44.151Z,101250.44
2022-08-25T20:17:14.562Z,101253.34
2022-08-25T20:19:48.746Z,101249.50
2022-08-25T20:22:17.754Z,101246.16
2022-08-25T20:24:55.760Z,101249.28
2022-08-25T20:27:22.015Z,101249.06
2022-08-25T20:29:46.103Z,101249.81
2022-08-25T20:32:09.911Z,101249.44
2022-08-25T20:34:35.237Z,101247.28
2022-08-25T20:36:59.200Z,101244.69
2022-08-25T20:39:25.254Z,101247.00
2022-08-25T20:41:49.082Z,101248.84
2022-08-25T20:44:12.810Z,101249.25
2022-08-25T20:46:36.895Z,101242.25
2022-08-25T20:49:02.031Z,101240.53
2022-08-25T20:51:26.807Z,101244.69
2022-08-25T20:53:50.469Z,101244.22
2022-08-25T20:56:18.935Z,101240.38
2022-08-25T20:58:43.743Z,101238.91
2022-08-25T21:01:09.312Z,101234.44
2022-08-25T21:03:34.344Z,101231.25
2022-08-25T21:05:58.352Z,101234.78
2022-08-25T21:08:22.017Z,101230.72
2022-08-25T21:10:47.896Z,101233.84
2022-08-25T21:13:12.971Z,101228.13
2022-08-25T21:15:36.690Z,101228.91
2022-08-25T21:18:00.450Z,101232.25
2022-08-25T21:20:25.956Z,101226.97
2022-08-25T21:22:49.586Z,101228.22
2022-08-25T21:25:14.583Z,101227.28
2022-08-25T21:27:38.214Z,101223.44
2022-08-25T21:30:03.787Z,101227.47
2022-08-25T21:32:27.495Z,101228.50
2022-08-25T21:34:54.208Z,101231.84
2022-08-25T21:37:17.877Z,101224.59
2022-08-25T21:39:41.523Z,101228.19
2022-08-25T21:42:07.226Z,101223.09
2022-08-25T21:44:32.835Z,101227.53
2022-08-25T21:46:58.319Z,101229.41
2022-08-25T21:49:22.175Z,101226.38
2022-08-25T21:51:47.107Z,101224.97
2022-08-25T21:54:15.378Z,101219.13
2022-08-25T21:56:42.022Z,101217.63
2022-08-25T21:59:08.032Z,101212.97
2022-08-25T22:01:31.734Z,101219.13
2022-08-25T22:03:56.826Z,101214.69
2022-08-25T22:06:22.648Z,101218.66
2022-08-25T22:08:46.335Z,101214.69
2022-08-25T22:11:11.987Z,101210.91
2022-08-25T22:13:38.646Z,101212.97
2022-08-25T22:16:05.454Z,101207.91
2022-08-25T22:18:29.926Z,101216.66
2022-08-25T22:20:55.039Z,101203.91
2022-08-25T22:23:20.713Z,101206.53
2022-08-25T22:25:44.445Z,101201.56
2022-08-25T22:28:08.410Z,101200.72
2022-08-25T22:30:39.682Z,101203.56
2022-08-25T22:33:05.037Z,101201.72
2022-08-25T22:35:35.691Z,101198.06
2022-08-25T22:38:01.095Z,101197.56
2022-08-25T22:40:25.240Z,101193.72
2022-08-25T22:42:50.616Z,101196.81
2022-08-25T22:45:14.353Z,101186.72
2022-08-25T22:47:38.819Z,101187.88
2022-08-25T22:50:06.427Z,101191.47
2022-08-25T22:52:33.185Z,101191.94
2022-08-25T22:54:58.935Z,101188.03
2022-08-25T22:57:22.768Z,101186.19
2022-08-25T22:59:46.451Z,101190.22
2022-08-25T23:02:13.450Z,101175.50
2022-08-25T23:04:41.571Z,101176.16
2022-08-25T23:07:07.978Z,101173.19
2022-08-25T23:09:33.776Z,101179.28
2022-08-25T23:11:59.972Z,101171.06
2022-08-25T23:14:24.722Z,101174.41
2022-08-25T23:16:51.137Z,101173.63
2022-08-25T23:19:15.976Z,101176.28
2022-08-25T23:21:57.017Z,101170.59
2022-08-25T23:24:29.262Z,101167.03
2022-08-25T23:26:54.200Z,101168.00
2022-08-25T23:29:19.558Z,101165.91
2022-08-25T23:31:44.267Z,101161.88
2022-08-25T23:34:08.332Z,101159.97
2022-08-25T23:36:32.342Z,101157.81
2022-08-25T23:38:56.211Z,101158.00
2022-08-25T23:41:23.695Z,101161.78
2022-08-25T23:43:49.039Z,101156.78
2022-08-25T23:46:14.756Z,101152.34
2022-08-25T23:48:38.768Z,101153.56
2022-08-25T23:51:02.628Z,101156.06
2022-08-25T23:53:26.911Z,101156.44
2022-08-25T23:55:53.072Z,101136.63
2022-08-25T23:58:17.940Z,101144.19
